Time;durP1;ratioP1;P1;durP2;ratioP2;P2;SDS_P1;SDS_P2;PMS_P1;PMS_P2;Temp;Humidity;BMP_temperature;BMP_pressure;BME280_temperature;BME280_humidity;BME280_pressure;Samples;Min_cycle;Max_cycle;Signal;HPM_P1;HPM_P2
2022/09/20 00:00:24;;;;;;;13.23;4.32;;;;;;;11.06;95.78;102231.16;5068545;28;20072;-75
2022/09/20 00:02:49;;;;;;;10.20;4.00;;;;;;;11.06;95.91;102229.38;5054737;28;20048;-76
2022/09/20 00:05:15;;;;;;;10.80;4.75;;;;;;;11.05;96.38;102224.06;5070889;28;20423;-75
2022/09/20 00:07:43;;;;;;;15.00;3.97;;;;;;;11.04;96.01;102217.91;5072395;28;20058;-76
2022/09/20 00:10:09;;;;;;;11.07;3.90;;;;;;;11.01;96.25;102222.34;5070197;28;20047;-76
2022/09/20 00:12:34;;;;;;;13.07;4.60;;;;;;;11.00;96.15;102225.84;5063767;28;20041;-76
2022/09/20 00:15:00;;;;;;;18.10;5.57;;;;;;;10.97;96.43;102222.31;5062755;28;20056;-75
2022/09/20 00:17:25;;;;;;;16.10;4.70;;;;;;;10.96;96.35;102227.63;5071685;28;20037;-76
2022/09/20 00:19:51;;;;;;;12.98;4.50;;;;;;;10.95;96.46;102224.09;5054227;28;20036;-76
2022/09/20 00:22:16;;;;;;;15.73;5.07;;;;;;;10.96;96.08;102224.97;5053710;28;20044;-76
2022/09/20 00:24:41;;;;;;;12.68;4.53;;;;;;;10.94;96.37;102219.69;5072178;28;20059;-76
2022/09/20 00:27:07;;;;;;;10.68;4.55;;;;;;;10.96;95.93;102224.97;5070806;28;20020;-76
2022/09/20 00:29:32;;;;;;;9.68;4.60;;;;;;;10.94;96.11;102227.63;5070649;28;20039;-76
2022/09/20 00:31:58;;;;;;;16.33;4.30;;;;;;;10.92;96.32;102229.38;5063955;28;20116;-76
2022/09/20 00:37:07;;;;;;;15.75;5.22;;;;;;;10.89;96.66;102234.69;5071890;28;20041;-76
2022/09/20 00:39:33;;;;;;;13.18;5.07;;;;;;;10.87;96.56;102235.59;5070465;28;20037;-76
2022/09/20 00:41:58;;;;;;;16.17;5.47;;;;;;;10.85;96.37;102235.56;5070648;28;20028;-76
2022/09/20 00:44:41;;;;;;;19.08;5.57;;;;;;;10.84;96.18;102235.59;5044505;28;20395;-76
2022/09/20 00:47:30;;;;;;;12.63;4.95;;;;;;;10.83;95.92;102233.81;5060600;28;20043;-76
2022/09/20 00:50:12;;;;;;;11.32;4.90;;;;;;;10.76;95.23;102239.13;5048771;28;20064;-76
2022/09/20 00:52:42;;;;;;;10.00;4.70;;;;;;;10.73;95.11;102231.19;5070463;28;20040;-76
2022/09/20 00:55:09;;;;;;;9.98;4.60;;;;;;;10.71;95.60;102237.38;5071410;28;20090;-76
2022/09/20 00:57:37;;;;;;;8.93;4.43;;;;;;;10.68;94.99;102243.56;5071622;28;20425;-76
2022/09/20 01:00:09;;;;;;;9.55;4.93;;;;;;;10.66;95.77;102241.78;5069978;28;20039;-76
2022/09/20 01:02:38;;;;;;;9.95;4.22;;;;;;;10.64;95.12;102241.78;5071457;28;20067;-76
2022/09/20 01:05:04;;;;;;;17.85;4.80;;;;;;;10.64;95.63;102233.84;5070121;28;20029;-76
2022/09/20 01:07:30;;;;;;;9.00;4.40;;;;;;;10.63;95.57;102240.03;5070233;28;20051;-76
2022/09/20 01:09:56;;;;;;;14.13;4.90;;;;;;;10.62;96.28;102234.72;5071322;28;20452;-76
2022/09/20 01:12:26;;;;;;;11.07;4.38;;;;;;;10.60;96.15;102237.34;5066782;28;20028;-76
2022/09/20 01:14:53;;;;;;;8.70;4.60;;;;;;;10.60;95.63;102236.47;5062189;28;20074;-76
2022/09/20 01:17:21;;;;;;;13.85;4.38;;;;;;;10.59;95.53;102237.38;5071310;28;20076;-76
2022/09/20 01:20:04;;;;;;;11.55;4.50;;;;;;;10.61;95.74;102236.50;5062459;28;20040;-76
2022/09/20 01:23:10;;;;;;;13.18;4.63;;;;;;;10.63;95.69;102229.44;5076430;28;20154;-76
2022/09/20 01:26:11;;;;;;;9.13;4.10;;;;;;;10.63;96.01;102234.72;5077917;28;20558;-76
2022/09/20 01:28:41;;;;;;;13.70;4.93;;;;;;;10.63;95.62;102234.72;5076746;28;20033;-76
2022/09/20 01:31:12;;;;;;;10.98;4.63;;;;;;;10.64;95.96;102225.88;5067945;28;20109;-76
2022/09/20 01:33:57;;;;;;;10.55;4.05;;;;;;;10.65;95.58;102238.22;5077790;28;20032;-76
2022/09/20 01:36:43;;;;;;;9.20;4.55;;;;;;;10.65;95.54;102232.94;5076428;28;20414;-76
2022/09/20 01:39:33;;;;;;;10.63;4.40;;;;;;;10.67;96.05;102231.19;5077741;28;20036;-76
2022/09/20 01:42:04;;;;;;;14.00;4.10;;;;;;;10.68;95.41;102234.69;5076089;28;20033;-76
2022/09/20 01:44:43;;;;;;;11.32;4.20;;;;;;;10.70;95.74;102238.25;5062737;28;20025;-76
2022/09/20 01:47:42;;;;;;;8.85;4.07;;;;;;;10.72;95.35;102236.47;5059669;28;20033;-76
2022/09/20 01:50:21;;;;;;;13.40;4.68;;;;;;;10.71;95.40;102229.44;5070293;28;20052;-76
2022/09/20 01:53:11;;;;;;;10.27;4.40;;;;;;;10.71;95.21;102237.38;5058352;28;20037;-76
2022/09/20 01:55:56;;;;;;;11.38;4.45;;;;;;;10.68;95.70;102230.31;5076441;28;20097;-76
2022/09/20 01:58:39;;;;;;;7.93;3.88;;;;;;;10.67;95.53;102233.81;5076309;28;20536;-76
2022/09/20 02:01:29;;;;;;;14.07;4.28;;;;;;;10.64;95.22;102232.97;5063690;28;20075;-76
2022/09/20 02:04:17;;;;;;;9.68;3.95;;;;;;;10.63;95.42;102236.47;5065854;28;20029;-76
2022/09/20 02:07:20;;;;;;;12.52;4.00;;;;;;;10.61;95.21;102236.50;5077399;28;20048;-76
2022/09/20 02:09:55;;;;;;;9.10;3.80;;;;;;;10.59;95.35;102232.06;5076263;28;20056;-76
2022/09/20 02:12:53;;;;;;;12.82;4.22;;;;;;;10.63;95.34;102231.16;5073410;28;20032;-76
2022/09/20 02:15:30;;;;;;;6.55;3.22;;;;;;;10.61;94.92;102230.28;5072733;28;20115;-76
2022/09/20 02:18:30;;;;;;;9.80;3.97;;;;;;;10.63;94.74;102231.16;5059910;28;20391;-76
2022/09/20 02:21:04;;;;;;;11.32;3.60;;;;;;;10.61;94.95;102225.91;5063604;28;20047;-76
2022/09/20 02:23:50;;;;;;;10.95;3.80;;;;;;;10.59;94.89;102227.66;5077777;28;20433;-76
2022/09/20 02:26:27;;;;;;;13.13;4.13;;;;;;;10.61;94.84;102224.97;5059538;28;20429;-76
2022/09/20 02:29:05;;;;;;;12.98;3.90;;;;;;;10.61;94.99;102230.28;5076034;28;20107;-76
2022/09/20 02:31:58;;;;;;;13.13;4.15;;;;;;;10.61;94.80;102227.63;5069830;28;20081;-76
2022/09/20 02:34:50;;;;;;;10.63;4.20;;;;;;;10.61;95.00;102232.94;5074241;28;20028;-76
2022/09/20 02:37:34;;;;;;;11.85;3.72;;;;;;;10.61;95.21;102224.97;5056055;28;20098;-76
2022/09/20 02:40:21;;;;;;;8.50;3.42;;;;;;;10.60;95.00;102225.88;5072687;28;20041;-76
2022/09/20 02:43:03;;;;;;;12.45;3.55;;;;;;;10.60;94.74;102223.22;5072877;28;20029;-76
2022/09/20 02:45:39;;;;;;;8.02;3.60;;;;;;;10.62;94.90;102226.78;5073741;28;20048;-76
2022/09/20 02:48:05;;;;;;;8.98;3.83;;;;;;;10.60;95.05;102226.75;5074180;28;20028;-76
2022/09/20 02:50:37;;;;;;;9.48;3.40;;;;;;;10.60;94.86;102225.88;5072384;28;20024;-76
2022/09/20 02:53:24;;;;;;;10.52;3.47;;;;;;;10.60;95.11;102224.09;5059705;28;20068;-76
2022/09/20 02:56:02;;;;;;;13.70;3.33;;;;;;;10.57;94.60;102229.41;5072576;28;20024;-76
2022/09/20 02:58:40;;;;;;;14.50;3.88;;;;;;;10.54;94.55;102218.81;5056667;28;20036;-76
2022/09/20 03:01:23;;;;;;;11.27;3.28;;;;;;;10.54;94.75;102224.13;5068522;28;20056;-76
2022/09/20 03:04:10;;;;;;;8.50;3.25;;;;;;;10.54;94.54;102226.78;5072523;28;20507;-76
2022/09/20 03:07:09;;;;;;;9.45;2.78;;;;;;;10.54;94.67;102221.47;5055327;28;20515;-76
2022/09/20 03:09:34;;;;;;;6.75;2.70;;;;;;;10.52;94.55;102215.28;5071914;28;20036;-76
2022/09/20 03:12:29;;;;;;;8.85;2.78;;;;;;;10.52;94.40;102220.59;5071196;28;20039;-76
2022/09/20 03:15:13;;;;;;;11.15;2.80;;;;;;;10.54;94.20;102216.19;5059703;28;20380;-76
2022/09/20 03:17:57;;;;;;;9.27;2.58;;;;;;;10.52;93.99;102218.81;5071257;28;20094;-76
2022/09/20 03:20:34;;;;;;;7.10;3.28;;;;;;;10.53;93.87;102223.25;5057815;28;20039;-76
2022/09/20 03:23:24;;;;;;;6.75;2.28;;;;;;;10.52;93.96;102224.09;5071900;28;20484;-76
2022/09/20 03:26:26;;;;;;;5.50;2.42;;;;;;;10.56;93.74;102225.00;5073155;28;20338;-76
2022/09/20 03:29:07;;;;;;;9.63;2.85;;;;;;;10.55;93.99;102226.75;5073177;28;20029;-76
2022/09/20 03:31:47;;;;;;;9.15;2.42;;;;;;;10.55;93.74;102217.94;5071640;28;20037;-76
2022/09/20 03:34:23;;;;;;;8.70;2.53;;;;;;;10.55;93.99;102225.88;5073244;28;20028;-76
2022/09/20 03:36:56;;;;;;;8.95;2.85;;;;;;;10.55;93.95;102232.06;5073058;28;20032;-76
2022/09/20 03:39:40;;;;;;;12.07;2.75;;;;;;;10.57;94.22;102232.06;5071769;28;20104;-76
2022/09/20 03:42:25;;;;;;;10.68;2.90;;;;;;;10.57;93.98;102229.41;5072839;28;20443;-76
2022/09/20 03:45:04;;;;;;;6.20;2.53;;;;;;;10.59;94.36;102232.94;5071878;28;20036;-76
2022/09/20 03:47:53;;;;;;;11.20;2.95;;;;;;;10.59;94.64;102229.44;5072803;28;20056;-76
2022/09/20 03:50:45;;;;;;;13.90;3.13;;;;;;;10.62;94.76;102224.13;5071143;28;20055;-76
2022/09/20 03:53:32;;;;;;;8.18;3.00;;;;;;;10.61;94.95;102222.34;5056959;28;20136;-76
2022/09/20 03:56:22;;;;;;;9.13;3.42;;;;;;;10.63;95.01;102223.22;5066041;28;20043;-76
2022/09/20 03:59:00;;;;;;;10.68;3.35;;;;;;;10.64;95.48;102219.72;5071387;28;20482;-76
2022/09/20 04:01:37;;;;;;;14.90;3.90;;;;;;;10.64;95.19;102222.38;5072436;28;20487;-76
2022/09/20 04:04:25;;;;;;;7.63;3.63;;;;;;;10.64;95.81;102225.00;5071220;28;20111;-76
2022/09/20 04:07:10;;;;;;;8.45;3.55;;;;;;;10.61;96.23;102222.34;5072483;28;20033;-76
2022/09/20 04:10:13;;;;;;;8.63;3.70;;;;;;;10.61;96.40;102220.59;5072294;28;20127;-76
2022/09/20 04:12:56;;;;;;;14.07;4.53;;;;;;;10.62;96.45;102216.16;5060991;28;20033;-76
2022/09/20 04:15:40;;;;;;;15.00;3.75;;;;;;;10.63;97.22;102224.13;5066541;28;20056;-76
2022/09/20 04:18:22;;;;;;;10.60;4.13;;;;;;;10.62;97.04;102224.13;5066818;28;20098;-76
2022/09/20 04:21:04;;;;;;;11.80;3.90;;;;;;;10.63;96.69;102221.47;5072016;28;20047;-77
2022/09/20 04:23:35;;;;;;;9.23;3.92;;;;;;;10.63;96.98;102221.47;5070804;28;20032;-77
2022/09/20 04:26:02;;;;;;;9.70;4.38;;;;;;;10.65;96.85;102218.81;5070613;28;20040;-77
2022/09/20 04:28:47;;;;;;;9.60;4.25;;;;;;;10.67;96.93;102209.09;5072017;28;20073;-77
2022/09/20 04:31:35;;;;;;;10.30;3.65;;;;;;;10.68;96.79;102206.47;5068816;28;20048;-77
2022/09/20 04:34:04;;;;;;;11.18;3.50;;;;;;;10.65;96.47;102214.38;5053326;28;20112;-77
2022/09/20 04:36:36;;;;;;;9.02;3.90;;;;;;;10.66;96.81;102224.13;5064572;28;20044;-77
2022/09/20 04:39:10;;;;;;;7.70;3.30;;;;;;;10.66;96.64;102228.56;5071758;28;20021;-77
2022/09/20 04:41:59;;;;;;;10.20;3.70;;;;;;;10.68;96.49;102226.75;5071941;28;20055;-77
2022/09/20 04:45:01;;;;;;;14.15;3.53;;;;;;;10.69;96.17;102226.78;5054716;28;20096;-77
2022/09/20 04:47:49;;;;;;;11.13;3.70;;;;;;;10.69;96.30;102229.41;5070575;28;20051;-77
2022/09/20 04:50:37;;;;;;;10.55;3.63;;;;;;;10.70;96.18;102233.81;5071687;28;20479;-77
2022/09/20 04:53:32;;;;;;;15.68;3.65;;;;;;;10.68;96.33;102234.69;5051882;28;20402;-77
2022/09/20 04:56:28;;;;;;;7.07;3.35;;;;;;;10.66;96.15;102232.06;5064713;28;20067;-77
2022/09/20 04:59:07;;;;;;;6.63;3.20;;;;;;;10.64;96.50;102236.47;5071610;28;20036;-77
2022/09/20 05:01:55;;;;;;;6.30;2.95;;;;;;;10.60;95.69;102236.47;5070090;28;20143;-77
2022/09/20 05:04:27;;;;;;;6.95;3.50;;;;;;;10.55;95.50;102236.47;5041007;28;20052;-77
2022/09/20 05:07:23;;;;;;;10.25;3.60;;;;;;;10.52;95.76;102242.66;5058450;28;20230;-77
2022/09/20 05:10:10;;;;;;;8.57;3.25;;;;;;;10.45;95.01;102240.88;5069923;28;20048;-77
2022/09/20 05:13:04;;;;;;;13.10;3.58;;;;;;;10.43;95.15;102249.69;5064043;28;20032;-77
2022/09/20 05:16:03;;;;;;;8.48;3.67;;;;;;;10.35;95.17;102252.34;5065320;28;20060;-77
2022/09/20 05:19:02;;;;;;;9.65;3.50;;;;;;;10.28;94.60;102247.91;5055466;28;20040;-77
2022/09/20 05:21:56;;;;;;;5.78;3.13;;;;;;;10.22;95.44;102246.09;5063790;28;20024;-77
2022/09/20 05:24:51;;;;;;;9.23;3.35;;;;;;;10.17;95.31;102254.94;5049921;28;20040;-77
2022/09/20 05:27:28;;;;;;;10.23;3.30;;;;;;;10.13;94.50;102256.66;5051204;28;20033;-77
2022/09/20 05:30:08;;;;;;;12.68;3.53;;;;;;;10.12;95.25;102261.09;5050913;28;20033;-77
2022/09/20 05:32:47;;;;;;;10.98;3.55;;;;;;;10.11;95.67;102254.03;5051163;28;20037;-77
2022/09/20 05:35:21;;;;;;;9.57;3.70;;;;;;;10.12;96.63;102261.09;5050834;28;20051;-77
2022/09/20 05:38:04;;;;;;;9.15;4.07;;;;;;;10.17;97.32;102262.88;5049879;28;20037;-77
2022/09/20 05:41:01;;;;;;;11.57;3.92;;;;;;;10.22;97.07;102272.59;5050766;28;20037;-77
2022/09/20 05:43:31;;;;;;;7.35;3.63;;;;;;;10.23;97.33;102269.03;5052724;28;20036;-76
2022/09/20 05:46:14;;;;;;;7.80;3.75;;;;;;;10.26;97.21;102277.03;5041027;28;20052;-77
2022/09/20 05:48:54;;;;;;;12.00;4.13;;;;;;;10.29;97.88;102276.19;5070739;28;20074;-76
2022/09/20 05:51:29;;;;;;;10.57;4.47;;;;;;;10.32;98.65;102276.16;5066285;28;20032;-77
2022/09/20 05:54:27;;;;;;;12.85;4.07;;;;;;;10.37;98.80;102281.47;5058268;28;20025;-77
2022/09/20 05:57:36;;;;;;;9.15;4.40;;;;;;;10.42;98.77;102277.97;5068041;28;20133;-76
2022/09/20 06:00:19;;;;;;;12.32;5.55;;;;;;;10.45;98.93;102282.38;5050200;28;20048;-76
2022/09/20 06:02:55;;;;;;;10.55;4.28;;;;;;;10.47;99.15;102275.31;5058895;28;20120;-76
2022/09/20 06:05:33;;;;;;;14.15;5.25;;;;;;;10.51;98.81;102287.69;5050176;28;20039;-76
2022/09/20 06:08:23;;;;;;;10.73;4.78;;;;;;;10.55;98.77;102290.31;5073410;28;20032;-76
2022/09/20 06:11:27;;;;;;;14.32;4.38;;;;;;;10.57;99.17;102292.09;5073043;28;20039;-76
2022/09/20 06:14:30;;;;;;;9.40;4.75;;;;;;;10.62;98.61;102293.88;5046122;28;20101;-76
2022/09/20 06:17:01;;;;;;;9.80;4.60;;;;;;;10.65;98.65;102300.94;5063975;28;20044;-76
2022/09/20 06:19:41;;;;;;;11.65;4.93;;;;;;;10.67;98.99;102301.84;5073701;28;20136;-76
2022/09/20 06:22:16;;;;;;;13.52;4.88;;;;;;;10.69;98.49;102294.78;5074244;28;20029;-76
2022/09/20 06:25:00;;;;;;;14.82;5.18;;;;;;;10.70;98.48;102296.53;5073063;28;20127;-76
2022/09/20 06:27:32;;;;;;;9.60;4.38;;;;;;;10.73;98.72;102297.44;5062641;28;20458;-76
2022/09/20 06:30:03;;;;;;;14.73;5.55;;;;;;;10.76;98.37;102305.38;5069653;28;20021;-76
2022/09/20 06:32:30;;;;;;;10.40;4.88;;;;;;;10.75;98.69;102294.75;5064462;28;20059;-76
2022/09/20 06:34:59;;;;;;;10.27;4.97;;;;;;;10.80;98.49;102294.78;5072702;28;20165;-76
2022/09/20 06:43:15;;;;;;;10.85;4.65;;;;;;;10.93;98.72;102301.88;5059721;28;20499;-76
2022/09/20 06:45:41;;;;;;;14.05;4.68;;;;;;;10.93;98.17;102297.44;5072389;28;20041;-76
2022/09/20 06:48:10;;;;;;;10.57;4.57;;;;;;;10.98;98.42;102295.66;5073618;28;20032;-76
2022/09/20 06:50:35;;;;;;;12.45;4.80;;;;;;;11.01;98.20;102297.44;5055991;28;20055;-76
2022/09/20 06:53:01;;;;;;;8.43;4.72;;;;;;;11.04;98.18;102299.19;5058037;28;20028;-76
2022/09/20 06:55:31;;;;;;;6.47;4.00;;;;;;;11.08;97.89;102307.16;5073566;28;20622;-76
2022/09/20 06:57:57;;;;;;;11.38;4.93;;;;;;;11.12;98.02;102305.38;5059515;28;20214;-76
2022/09/20 07:00:23;;;;;;;8.32;4.40;;;;;;;11.15;97.19;102305.34;5072267;28;20218;-76
2022/09/20 07:02:48;;;;;;;7.75;4.40;;;;;;;11.18;96.94;102297.44;5073852;28;20067;-76
2022/09/20 07:05:15;;;;;;;11.45;4.55;;;;;;;11.24;97.20;102300.06;5073385;28;20016;-76
2022/09/20 07:07:42;;;;;;;9.38;4.30;;;;;;;11.32;96.88;102303.56;5073524;28;20128;-76
2022/09/20 07:10:13;;;;;;;9.75;4.20;;;;;;;11.43;96.58;102302.69;5072175;28;20043;-76
2022/09/20 07:12:39;;;;;;;12.85;4.32;;;;;;;11.54;96.47;102303.53;5065129;28;20082;-76
2022/09/20 07:15:06;;;;;;;9.05;4.13;;;;;;;11.62;94.84;102304.38;5061004;28;20040;-76
2022/09/20 07:17:32;;;;;;;10.65;4.40;;;;;;;11.70;94.41;102305.28;5054377;28;20457;-76
2022/09/20 07:19:58;;;;;;;8.32;3.78;;;;;;;11.78;94.01;102311.44;5065833;28;20029;-76
2022/09/20 07:22:25;;;;;;;11.25;4.13;;;;;;;11.89;94.53;102306.09;5053181;28;20104;-76
2022/09/20 07:24:50;;;;;;;9.23;3.78;;;;;;;12.02;92.99;102306.97;5053277;28;20070;-76
2022/09/20 07:27:16;;;;;;;12.10;4.18;;;;;;;12.14;93.60;102301.59;5052988;28;20050;-76
2022/09/20 07:29:41;;;;;;;9.10;3.95;;;;;;;12.24;92.33;102310.41;5044663;28;20420;-76
2022/09/20 07:32:07;;;;;;;10.25;3.85;;;;;;;12.25;91.60;102312.16;5053960;28;20045;-76
2022/09/20 07:34:32;;;;;;;12.48;3.60;;;;;;;12.23;90.44;102309.47;5059239;28;20036;-76
2022/09/20 07:36:58;;;;;;;9.10;3.28;;;;;;;12.25;90.37;102314.81;5055164;28;20124;-76
2022/09/20 07:39:25;;;;;;;6.70;3.60;;;;;;;12.25;89.31;102309.50;5052665;28;20032;-76
2022/09/20 07:41:50;;;;;;;7.82;3.15;;;;;;;12.28;89.87;102309.47;5035861;28;20041;-76
2022/09/20 07:44:20;;;;;;;9.52;3.45;;;;;;;12.38;90.33;102320.94;5063550;28;20089;-76
2022/09/20 07:46:47;;;;;;;10.80;3.60;;;;;;;12.45;89.16;102320.88;5072669;28;20048;-76
2022/09/20 07:49:13;;;;;;;11.38;3.45;;;;;;;12.53;88.83;102325.25;5072681;28;20372;-76
2022/09/20 07:51:39;;;;;;;8.93;2.80;;;;;;;12.59;86.77;102327.91;5059223;28;20048;-76
2022/09/20 07:54:07;;;;;;;13.45;2.70;;;;;;;12.67;87.77;102332.25;5064659;28;20041;-76
2022/09/20 07:56:33;;;;;;;14.63;3.10;;;;;;;12.79;86.63;102330.41;5072237;28;20048;-76
2022/09/20 07:58:59;;;;;;;6.07;2.13;;;;;;;12.81;85.44;102333.91;5071085;28;20033;-77
2022/09/20 08:01:24;;;;;;;8.30;2.60;;;;;;;12.84;85.14;102340.13;5069238;28;20079;-77
2022/09/20 08:03:50;;;;;;;11.52;2.78;;;;;;;12.97;85.65;102340.03;5072374;28;20072;-77
2022/09/20 08:06:17;;;;;;;9.52;2.45;;;;;;;13.06;84.48;102335.50;5072281;28;20033;-77
2022/09/20 08:08:43;;;;;;;8.38;2.85;;;;;;;13.17;84.31;102338.06;5071192;28;20472;-77
2022/09/20 08:11:12;;;;;;;8.30;1.98;;;;;;;13.26;82.34;102332.69;5072002;28;20227;-77
2022/09/20 08:13:43;;;;;;;10.57;2.15;;;;;;;13.36;83.54;102330.84;5058124;28;20127;-77
2022/09/20 08:16:10;;;;;;;10.13;2.50;;;;;;;13.46;82.50;102326.31;5057874;28;20063;-77
2022/09/20 08:18:36;;;;;;;9.57;2.42;;;;;;;13.54;82.30;102327.13;5062031;28;20057;-77
2022/09/20 08:21:07;;;;;;;10.52;2.72;;;;;;;13.60;82.28;102326.16;5071739;28;20024;-77
2022/09/20 08:23:37;;;;;;;9.40;1.98;;;;;;;13.63;80.33;102324.38;5054301;28;20052;-77
2022/09/20 08:26:04;;;;;;;4.60;1.85;;;;;;;13.70;78.48;102323.41;5058605;28;20041;-77
2022/09/20 08:28:31;;;;;;;8.32;2.00;;;;;;;13.79;78.15;102324.19;5056232;28;20021;-78
2022/09/20 08:31:04;;;;;;;5.78;1.70;;;;;;;13.80;77.47;102329.50;5069743;28;20040;-77
2022/09/20 08:33:31;;;;;;;13.25;1.90;;;;;;;13.85;77.52;102327.66;5065941;28;20028;-77
2022/09/20 08:35:56;;;;;;;9.38;2.17;;;;;;;13.93;77.78;102331.09;5050366;28;20029;-77
2022/09/20 08:38:26;;;;;;;7.05;1.58;;;;;;;14.04;76.76;102332.75;5050420;28;20549;-77
2022/09/20 08:41:06;;;;;;;8.05;2.08;;;;;;;14.20;77.52;102352.97;5050947;28;20048;-78
2022/09/20 08:43:38;;;;;;;7.90;1.27;;;;;;;14.30;75.77;102343.97;5060318;28;20083;-78
2022/09/20 08:46:08;;;;;;;10.20;2.42;;;;;;;14.34;72.86;102344.78;5071543;28;20033;-78
2022/09/20 08:48:34;;;;;;;3.40;1.50;;;;;;;14.38;72.80;102355.38;5071399;28;20067;-78
2022/09/20 08:51:06;;;;;;;6.53;1.48;;;;;;;14.34;72.19;102355.44;5053625;28;20033;-78
2022/09/20 08:53:33;;;;;;;7.88;1.88;;;;;;;14.28;73.26;102355.53;5044592;28;20033;-78
2022/09/20 08:55:59;;;;;;;11.32;2.00;;;;;;;14.23;72.50;102357.38;5044943;28;20048;-78
2022/09/20 08:58:26;;;;;;;9.23;1.73;;;;;;;14.19;73.61;102357.44;5057121;28;20051;-78
2022/09/20 09:00:54;;;;;;;6.60;1.73;;;;;;;14.45;72.60;102350.88;5070314;28;20025;-78
2022/09/20 09:03:20;;;;;;;11.27;2.33;;;;;;;14.75;73.79;102354.03;5048237;28;20481;-78
2022/09/20 09:05:53;;;;;;;9.77;2.08;;;;;;;14.86;72.49;102354.75;5061388;28;20071;-78
2022/09/20 09:08:37;;;;;;;7.82;1.35;;;;;;;14.84;70.59;102353.91;5069940;28;20169;-78
2022/09/20 09:11:08;;;;;;;6.82;1.50;;;;;;;14.86;70.38;102353.84;5071197;28;20032;-78
2022/09/20 09:13:41;;;;;;;9.35;1.75;;;;;;;14.89;71.33;102362.72;5057965;28;20032;-78
2022/09/20 09:16:15;;;;;;;6.72;1.40;;;;;;;14.88;68.98;102354.72;5071160;28;20045;-78
2022/09/20 09:18:42;;;;;;;7.35;1.95;;;;;;;14.85;67.16;102358.31;5065881;28;20387;-78
2022/09/20 09:21:16;;;;;;;7.88;1.40;;;;;;;14.77;66.91;102353.09;5069685;28;20082;-78
2022/09/20 09:23:51;;;;;;;8.20;1.52;;;;;;;14.76;68.43;102353.09;5057050;28;20047;-78
2022/09/20 09:26:20;;;;;;;8.95;1.35;;;;;;;14.83;68.51;102361.00;5057197;28;20045;-78
2022/09/20 09:28:46;;;;;;;8.43;1.58;;;;;;;14.86;66.46;102360.09;5070159;28;20139;-78
2022/09/20 09:31:24;;;;;;;7.88;1.45;;;;;;;14.88;67.66;102357.38;5053031;28;20502;-78
2022/09/20 09:33:50;;;;;;;7.22;1.30;;;;;;;14.94;68.85;102359.97;5065222;28;20112;-78
2022/09/20 09:36:22;;;;;;;8.85;1.70;;;;;;;14.99;68.20;102355.44;5061693;28;20043;-78
2022/09/20 09:38:48;;;;;;;7.65;1.42;;;;;;;15.07;67.08;102364.19;5070986;28;20033;-78
2022/09/20 09:41:16;;;;;;;8.38;1.50;;;;;;;15.07;65.40;102366.84;5071403;28;20056;-78
2022/09/20 09:43:42;;;;;;;8.80;1.80;;;;;;;15.03;66.30;102362.47;5073505;28;20040;-78
2022/09/20 09:46:22;;;;;;;6.00;1.45;;;;;;;15.02;66.40;102369.59;5074968;28;20044;-78
2022/09/20 09:49:17;;;;;;;8.55;1.65;;;;;;;14.95;66.60;102364.38;5059695;28;20049;-78
2022/09/20 09:52:03;;;;;;;4.82;1.33;;;;;;;14.92;67.10;102367.09;5075016;28;20417;-78
2022/09/20 09:54:37;;;;;;;5.47;1.58;;;;;;;14.82;65.40;102374.38;5060816;28;20125;-78
2022/09/20 09:57:27;;;;;;;9.18;2.03;;;;;;;14.83;67.31;102376.13;5063649;28;20041;-78
2022/09/20 10:00:13;;;;;;;4.63;1.25;;;;;;;14.92;68.02;102367.09;5072413;28;20035;-78
2022/09/20 10:03:00;;;;;;;9.10;1.65;;;;;;;15.04;67.41;102372.25;5073469;28;20036;-79
2022/09/20 10:06:03;;;;;;;11.57;1.65;;;;;;;15.18;68.15;102377.34;5056567;28;20025;-78
2022/09/20 10:08:34;;;;;;;8.90;1.60;;;;;;;15.31;66.19;102375.38;5054340;28;20028;-78
2022/09/20 10:10:59;;;;;;;7.03;1.52;;;;;;;15.36;64.47;102377.06;5074606;28;20028;-78
2022/09/20 10:13:56;;;;;;;14.10;1.77;;;;;;;15.51;67.88;102375.91;5061017;28;20396;-79
2022/09/20 10:16:31;;;;;;;11.73;2.47;;;;;;;15.61;66.73;102371.28;5054475;28;20033;-78
2022/09/20 10:19:25;;;;;;;10.93;1.90;;;;;;;15.76;68.92;102371.00;5052878;28;20029;-78
2022/09/20 10:22:00;;;;;;;5.97;1.25;;;;;;;15.77;65.04;102371.88;5054398;28;20032;-78
2022/09/20 10:24:32;;;;;;;8.40;1.77;;;;;;;15.75;65.05;102369.25;5054450;28;20091;-78
2022/09/20 10:27:07;;;;;;;6.85;1.52;;;;;;;15.77;63.92;102364.75;5036396;28;20064;-79
2022/09/20 10:29:45;;;;;;;7.55;1.60;;;;;;;16.04;67.29;102359.78;5053417;28;20341;-78
2022/09/20 10:32:17;;;;;;;4.75;1.25;;;;;;;16.38;63.12;102365.28;5057559;28;20033;-79
2022/09/20 10:35:05;;;;;;;13.27;1.92;;;;;;;16.57;62.47;102363.09;5052765;28;20033;-79
2022/09/20 10:37:40;;;;;;;7.40;1.20;;;;;;;16.61;61.27;102367.44;5054120;28;20128;-79
2022/09/20 10:43:57;;;;;;;11.98;1.20;;;;;;;16.53;63.11;102361.41;5043041;28;20044;-79
2022/09/20 10:46:23;;;;;;;6.07;1.40;;;;;;;16.52;61.94;102368.53;5050567;28;20110;-79
2022/09/20 10:49:02;;;;;;;5.65;1.30;;;;;;;16.54;61.46;102365.81;5072003;28;20480;-78
2022/09/20 10:51:47;;;;;;;10.77;2.85;;;;;;;16.55;62.91;102363.13;5049816;28;20102;-78
2022/09/20 10:54:41;;;;;;;10.95;2.80;;;;;;;16.64;62.61;102371.84;5049813;28;20036;-78
2022/09/20 10:57:44;;;;;;;11.70;1.50;;;;;;;16.68;63.53;102381.56;5072633;28;20040;-77
2022/09/20 11:00:35;;;;;;;7.22;1.80;;;;;;;16.63;61.49;102372.78;5060828;28;20081;-77
2022/09/20 11:03:32;;;;;;;10.55;1.50;;;;;;;16.52;60.53;102368.53;5073800;28;20131;-76
2022/09/20 11:06:36;;;;;;;12.02;2.72;;;;;;;16.46;61.09;102374.00;5072159;28;20503;-76
2022/09/20 11:09:06;;;;;;;5.70;1.60;;;;;;;16.55;60.91;102379.16;5044645;28;20052;-76
2022/09/20 11:11:41;;;;;;;7.55;1.40;;;;;;;16.67;59.19;102372.66;5069639;28;20040;-76
2022/09/20 11:14:15;;;;;;;10.00;1.70;;;;;;;16.79;59.44;102382.25;5064538;28;20496;-76
2022/09/20 11:17:04;;;;;;;8.63;2.35;;;;;;;16.88;60.07;102379.34;5056366;28;20064;-77
2022/09/20 11:19:51;;;;;;;8.15;1.60;;;;;;;16.97;60.72;102381.78;5071766;28;20051;-76
2022/09/20 11:22:38;;;;;;;6.18;1.85;;;;;;;17.01;58.73;102384.38;5059291;28;20464;-76
2022/09/20 11:25:17;;;;;;;9.05;1.70;;;;;;;17.02;58.72;102392.41;5071752;28;20062;-76
2022/09/20 11:28:12;;;;;;;4.25;1.40;;;;;;;16.99;58.33;102389.81;5063183;28;20037;-76
2022/09/20 11:31:08;;;;;;;5.97;1.38;;;;;;;16.84;58.45;102400.84;5062711;28;20499;-76
2022/09/20 11:33:43;;;;;;;4.78;1.13;;;;;;;16.68;58.87;102401.16;5065250;28;20056;-76
2022/09/20 11:36:15;;;;;;;3.95;1.10;;;;;;;16.55;58.20;102400.56;5071116;28;20151;-76
2022/09/20 11:39:00;;;;;;;6.15;1.27;;;;;;;16.51;60.62;102411.34;5072438;28;20062;-76
2022/09/20 11:41:29;;;;;;;3.97;1.42;;;;;;;16.36;58.55;102409.88;5071243;28;20036;-76
2022/09/20 11:44:01;;;;;;;5.90;1.42;;;;;;;16.18;58.37;102407.63;5071093;28;20457;-76
2022/09/20 11:46:32;;;;;;;4.43;1.48;;;;;;;16.04;58.35;102408.75;5071117;28;20126;-76
2022/09/20 11:49:08;;;;;;;9.50;1.77;;;;;;;15.96;60.29;102405.34;5058608;28;20115;-76
2022/09/20 11:52:04;;;;;;;5.15;1.65;;;;;;;15.87;61.62;102408.19;5070823;28;20062;-76
2022/09/20 11:55:09;;;;;;;7.07;1.60;;;;;;;15.69;60.95;102415.63;5072304;28;20115;-76
2022/09/20 11:57:36;;;;;;;5.13;1.27;;;;;;;15.58;61.49;102406.00;5058156;28;20052;-76
2022/09/20 12:00:06;;;;;;;5.15;1.00;;;;;;;15.55;62.43;102403.41;5072031;28;20516;-76
2022/09/20 12:02:48;;;;;;;4.50;1.23;;;;;;;15.58;62.26;102406.94;5067806;28;20638;-77
2022/09/20 12:05:26;;;;;;;15.73;1.42;;;;;;;15.65;62.25;102405.00;5071216;28;20328;-76
2022/09/20 12:07:54;;;;;;;6.38;1.55;;;;;;;15.72;62.05;102406.69;5070340;28;20032;-76
2022/09/20 12:10:23;;;;;;;3.67;1.17;;;;;;;15.83;62.51;102410.06;5058838;28;20464;-78
2022/09/20 12:13:05;;;;;;;8.13;1.50;;;;;;;15.93;61.01;102399.19;5061448;28;20052;-79
2022/09/20 12:15:34;;;;;;;5.97;1.10;;;;;;;16.00;59.62;102401.72;5056846;28;20048;-79
2022/09/20 12:18:14;;;;;;;6.90;1.13;;;;;;;16.07;59.43;102406.03;5064548;28;20424;-79
2022/09/20 12:20:43;;;;;;;2.28;1.08;;;;;;;16.12;58.55;102396.13;5067327;28;20044;-79